Tokma, Russia
Current Conditions -  °F | °C
As of 8:00 PM on Thursday 30 Oct 2014 (Local Time) from UIBB Reporting Station
Overcast Overcast  
Wind Chill: 20°   Ceiling: 10000
Heat Index: 28°   Visibility: 3mi
Dew Point: 10°   Wind: 9mph
Humidity: 47%   Direction: 220°SW
Pressure: 29.97"   Gusts: NA
Location:  58.25°N, 105.88°E
Report Text: UIBB 301200Z 22004MPS P5000 SCT030CB OVC100 M02/M12 Q1015 NOSIGRMK QFE718/0957 30820560
Loading
Personal Weather Stations






























Interactive Weather Map
Tropical Storm Tracking
New forecast layout! Learn more

10-Day Weather Forecast

Advertisements
Track Severe Weather on mobile